createdAt,value
2023-01-28T00:01:19.708Z,6.93
2023-01-28T00:03:51.294Z,10.65
2023-01-28T00:06:19.018Z,6.68
2023-01-28T00:08:45.693Z,6.60
2023-01-28T00:11:14.029Z,7.43
2023-01-28T00:13:40.733Z,8.23
2023-01-28T00:16:09.870Z,6.85
2023-01-28T00:18:37.707Z,6.05
2023-01-28T00:21:06.049Z,6.28
2023-01-28T00:23:34.979Z,8.25
2023-01-28T00:26:03.898Z,6.53
2023-01-28T00:28:30.644Z,6.22
2023-01-28T00:30:57.448Z,7.43
2023-01-28T00:33:24.278Z,11.13
2023-01-28T00:36:17.501Z,8.13
2023-01-28T00:38:52.009Z,8.63
2023-01-28T00:41:22.084Z,7.20
2023-01-28T00:43:51.361Z,8.00
2023-01-28T00:46:18.825Z,7.32
2023-01-28T00:48:46.092Z,6.70
2023-01-28T00:51:15.078Z,9.05
2023-01-28T00:53:42.737Z,6.45
2023-01-28T00:56:13.855Z,6.18
2023-01-28T00:58:41.436Z,8.05
2023-01-28T01:01:16.627Z,8.55
2023-01-28T01:03:44.320Z,12.05
2023-01-28T01:06:12.695Z,16.50
2023-01-28T01:08:43.256Z,7.35
2023-01-28T01:11:11.619Z,8.82
2023-01-28T01:13:38.827Z,6.63
2023-01-28T01:16:16.742Z,6.47
2023-01-28T01:18:46.600Z,8.45
2023-01-28T01:21:18.197Z,6.90
2023-01-28T01:23:51.108Z,7.30
2023-01-28T01:26:18.198Z,9.93
2023-01-28T01:28:46.885Z,10.75
2023-01-28T01:31:20.026Z,10.82
2023-01-28T01:33:48.851Z,8.57
2023-01-28T01:36:20.549Z,10.40
2023-01-28T01:38:47.949Z,7.28
2023-01-28T01:41:25.572Z,6.50
2023-01-28T01:44:01.098Z,6.82
2023-01-28T01:46:32.641Z,7.03
2023-01-28T01:49:07.359Z,6.95
2023-01-28T01:51:35.251Z,8.30
2023-01-28T01:54:03.029Z,7.53
2023-01-28T01:56:34.583Z,8.10
2023-01-28T01:59:03.782Z,7.45
2023-01-28T02:01:32.737Z,7.10
2023-01-28T02:04:03.587Z,7.05
2023-01-28T02:06:31.547Z,8.10
2023-01-28T02:08:58.499Z,7.07
2023-01-28T02:11:30.489Z,7.10
2023-01-28T02:14:01.810Z,8.93
2023-01-28T02:16:31.381Z,15.65
2023-01-28T02:18:58.165Z,8.82
2023-01-28T02:21:31.481Z,14.50
2023-01-28T02:24:29.517Z,16.13
2023-01-28T02:27:31.697Z,9.00
2023-01-28T02:30:22.805Z,9.93
2023-01-28T02:33:01.041Z,7.65
2023-01-28T02:35:53.461Z,9.55
2023-01-28T02:38:34.875Z,7.47
2023-01-28T02:41:07.569Z,10.43
2023-01-28T02:43:38.497Z,7.18
2023-01-28T02:46:46.000Z,6.38
2023-01-28T02:49:49.873Z,7.00
2023-01-28T02:52:49.393Z,9.23
2023-01-28T02:55:30.645Z,8.20
2023-01-28T02:58:18.095Z,7.30
2023-01-28T03:01:08.500Z,5.93
2023-01-28T03:03:53.492Z,7.20
2023-01-28T03:06:26.690Z,6.03
2023-01-28T03:09:19.253Z,7.10
2023-01-28T03:12:33.543Z,8.20
2023-01-28T03:15:28.554Z,6.88
2023-01-28T03:18:29.407Z,7.57
2023-01-28T03:21:24.779Z,6.72
2023-01-28T03:24:22.392Z,7.30
2023-01-28T03:27:36.403Z,6.30
2023-01-28T03:30:32.439Z,6.35
2023-01-28T03:33:23.666Z,6.60
2023-01-28T03:36:08.914Z,7.22
2023-01-28T03:38:42.473Z,7.10
2023-01-28T03:41:12.797Z,6.70
2023-01-28T03:43:41.342Z,6.97
2023-01-28T03:46:08.051Z,7.00
2023-01-28T03:48:34.734Z,6.47
2023-01-28T03:51:04.839Z,7.65
2023-01-28T03:53:32.679Z,6.82
2023-01-28T03:55:59.455Z,6.78
2023-01-28T03:58:27.335Z,7.53
2023-01-28T04:00:54.596Z,6.78
2023-01-28T04:03:22.247Z,6.50
2023-01-28T04:06:10.245Z,6.65
2023-01-28T04:08:53.741Z,6.95
2023-01-28T04:11:32.269Z,6.60
2023-01-28T04:14:01.890Z,6.72
2023-01-28T04:16:44.980Z,6.68
2023-01-28T04:19:14.328Z,6.82
2023-01-28T04:21:44.400Z,6.53
2023-01-28T04:26:51.756Z,6.68
2023-01-28T04:29:19.674Z,6.03
2023-01-28T04:31:47.542Z,6.60
2023-01-28T04:34:18.005Z,6.45
2023-01-28T04:36:57.759Z,7.05
2023-01-28T04:39:48.757Z,6.78
2023-01-28T04:42:19.356Z,5.63
2023-01-28T04:44:55.921Z,5.20
2023-01-28T04:47:43.348Z,5.50
2023-01-28T04:50:27.086Z,7.53
2023-01-28T04:53:13.252Z,7.00
2023-01-28T04:55:59.673Z,7.80
2023-01-28T04:58:32.720Z,6.80
2023-01-28T05:01:04.654Z,7.30
2023-01-28T05:03:34.147Z,6.35
2023-01-28T05:06:03.914Z,7.40
2023-01-28T05:08:37.556Z,7.45
2023-01-28T05:11:04.523Z,7.07
2023-01-28T05:13:31.204Z,7.22
2023-01-28T05:15:58.584Z,6.38
2023-01-28T05:18:27.464Z,7.15
2023-01-28T05:21:20.340Z,6.75
2023-01-28T05:23:55.120Z,6.28
2023-01-28T05:26:22.524Z,7.03
2023-01-28T05:28:52.764Z,7.43
2023-01-28T05:31:19.973Z,6.30
2023-01-28T05:33:46.644Z,6.68
2023-01-28T05:36:14.855Z,6.82
2023-01-28T05:38:42.767Z,6.80
2023-01-28T05:41:10.331Z,6.88
2023-01-28T05:43:38.532Z,6.55
2023-01-28T05:46:15.625Z,7.22
2023-01-28T05:49:08.838Z,6.68
2023-01-28T05:51:50.618Z,6.10
2023-01-28T05:54:21.453Z,5.25
2023-01-28T05:56:49.284Z,6.72
2023-01-28T05:59:17.429Z,7.35
2023-01-28T06:01:46.121Z,6.47
2023-01-28T06:04:13.474Z,6.85
2023-01-28T06:06:40.400Z,6.38
2023-01-28T06:09:07.052Z,6.43
2023-01-28T06:11:37.173Z,6.85
2023-01-28T06:14:11.790Z,6.63
2023-01-28T06:17:01.463Z,7.05
2023-01-28T06:19:38.261Z,6.95
2023-01-28T06:22:06.513Z,6.32
2023-01-28T06:24:33.557Z,6.40
2023-01-28T06:27:00.579Z,7.28
2023-01-28T06:29:27.256Z,6.72
2023-01-28T06:31:56.904Z,6.75
2023-01-28T06:34:25.499Z,7.28
2023-01-28T06:36:53.486Z,6.28
2023-01-28T06:39:22.207Z,7.35
2023-01-28T06:41:50.261Z,6.80
2023-01-28T06:44:17.097Z,7.28
2023-01-28T06:46:43.990Z,7.53
2023-01-28T06:49:11.645Z,6.95
2023-01-28T06:51:38.806Z,7.30
2023-01-28T06:54:05.908Z,7.57
2023-01-28T06:56:32.736Z,7.68
2023-01-28T06:58:59.947Z,7.30
2023-01-28T07:01:26.616Z,7.05
2023-01-28T07:03:53.292Z,7.10
2023-01-28T07:06:20.119Z,7.40
2023-01-28T07:08:47.379Z,7.78
2023-01-28T07:11:14.194Z,7.55
2023-01-28T07:13:40.966Z,7.47
2023-01-28T07:16:08.311Z,7.22
2023-01-28T07:18:35.076Z,7.07
2023-01-28T07:21:04.993Z,7.47
2023-01-28T07:23:31.588Z,7.20
2023-01-28T07:26:02.898Z,7.00
2023-01-28T07:28:30.062Z,7.07
2023-01-28T07:30:59.483Z,7.07
2023-01-28T07:33:26.331Z,6.93
2023-01-28T07:35:53.053Z,7.65
2023-01-28T07:38:20.278Z,7.60
2023-01-28T07:40:47.058Z,7.85
2023-01-28T07:43:14.172Z,8.15
2023-01-28T07:45:41.030Z,7.63
2023-01-28T07:48:10.096Z,7.72
2023-01-28T07:50:37.519Z,8.52
2023-01-28T07:53:06.689Z,7.63
2023-01-28T07:55:36.046Z,7.50
2023-01-28T07:58:05.861Z,7.70
2023-01-28T08:00:34.831Z,8.15
2023-01-28T08:03:10.402Z,8.25
2023-01-28T08:05:44.859Z,7.95
2023-01-28T08:08:12.550Z,7.50
2023-01-28T08:10:39.414Z,7.80
2023-01-28T08:13:07.131Z,8.07
2023-01-28T08:15:35.127Z,7.75
2023-01-28T08:18:03.783Z,6.53
2023-01-28T08:20:31.057Z,7.25
2023-01-28T08:23:17.258Z,7.10
2023-01-28T08:25:44.883Z,8.20
2023-01-28T08:28:12.112Z,7.60
2023-01-28T08:30:39.280Z,7.53
2023-01-28T08:33:07.481Z,6.90
2023-01-28T08:35:34.810Z,7.65
2023-01-28T08:38:03.807Z,8.02
2023-01-28T08:40:31.214Z,7.05
2023-01-28T08:42:58.328Z,7.28
2023-01-28T08:45:27.893Z,7.55
2023-01-28T08:47:57.299Z,7.85
2023-01-28T08:50:26.441Z,6.18
2023-01-28T08:52:57.917Z,7.63
2023-01-28T08:55:25.549Z,6.78
2023-01-28T08:57:52.514Z,7.03
2023-01-28T09:00:22.287Z,6.85
2023-01-28T09:02:53.160Z,8.02
2023-01-28T09:05:25.613Z,8.05
2023-01-28T09:07:52.261Z,6.72
2023-01-28T09:10:22.388Z,7.25
2023-01-28T09:12:52.552Z,6.95
2023-01-28T09:15:19.183Z,7.10
2023-01-28T09:17:45.823Z,8.02
2023-01-28T09:20:13.750Z,7.75
2023-01-28T09:22:40.804Z,7.47
2023-01-28T09:25:10.076Z,7.88
2023-01-28T09:27:41.985Z,7.45
2023-01-28T09:30:10.472Z,7.00
2023-01-28T09:32:38.651Z,7.78
2023-01-28T09:35:06.684Z,7.40
2023-01-28T09:37:33.506Z,7.68
2023-01-28T09:40:00.439Z,7.70
2023-01-28T09:43:13.578Z,7.65
2023-01-28T09:45:47.836Z,7.00
2023-01-28T09:48:33.640Z,8.20
2023-01-28T09:51:01.781Z,7.10
2023-01-28T09:53:36.848Z,6.70
2023-01-28T09:56:17.065Z,7.43
2023-01-28T09:58:43.751Z,7.28
2023-01-28T10:01:26.031Z,7.38
2023-01-28T10:04:23.116Z,7.82
2023-01-28T10:07:15.177Z,7.05
2023-01-28T10:09:50.091Z,7.70
2023-01-28T10:12:33.592Z,6.57
2023-01-28T10:15:20.027Z,7.72
2023-01-28T10:18:15.988Z,7.22
2023-01-28T10:20:57.184Z,6.53
2023-01-28T10:23:39.586Z,8.20
2023-01-28T10:26:20.877Z,6.93
2023-01-28T10:28:54.580Z,6.78
2023-01-28T10:33:49.337Z,4.53
2023-01-28T10:36:18.281Z,7.30
2023-01-28T10:38:45.648Z,8.30
2023-01-28T10:41:23.294Z,7.47
2023-01-28T10:43:54.711Z,8.60
2023-01-28T10:46:27.062Z,6.57
2023-01-28T10:48:59.991Z,9.40
2023-01-28T10:51:52.983Z,7.95
2023-01-28T10:54:26.144Z,7.57
2023-01-28T10:57:04.202Z,6.90
2023-01-28T10:59:36.907Z,6.97
2023-01-28T11:02:26.922Z,7.85
2023-01-28T11:05:25.845Z,8.48
2023-01-28T11:08:16.421Z,7.30
2023-01-28T11:10:44.591Z,8.30
2023-01-28T11:13:29.215Z,7.35
2023-01-28T11:16:26.367Z,7.25
2023-01-28T11:18:57.206Z,7.95
2023-01-28T11:21:30.205Z,7.95
2023-01-28T11:24:03.724Z,6.35
2023-01-28T11:26:45.556Z,7.25
2023-01-28T11:29:33.593Z,7.45
2023-01-28T11:32:01.204Z,6.18
2023-01-28T11:34:33.246Z,5.85
2023-01-28T11:37:19.159Z,5.07
2023-01-28T11:39:46.023Z,4.45
2023-01-28T11:42:20.784Z,5.30
2023-01-28T11:44:49.088Z,5.78
2023-01-28T11:47:20.569Z,5.90
2023-01-28T11:50:16.420Z,5.10
2023-01-28T11:53:07.541Z,5.65
2023-01-28T11:56:23.945Z,5.60
2023-01-28T11:59:16.715Z,5.82
2023-01-28T12:02:01.636Z,6.25
2023-01-28T12:04:43.981Z,5.45
2023-01-28T12:07:36.166Z,6.75
2023-01-28T12:10:17.030Z,6.00
2023-01-28T12:12:51.603Z,7.18
2023-01-28T12:15:24.060Z,5.35
2023-01-28T12:18:12.503Z,6.28
2023-01-28T12:20:51.699Z,6.30
2023-01-28T12:23:54.992Z,7.28
2023-01-28T12:26:45.250Z,6.35
2023-01-28T12:29:40.955Z,5.97
2023-01-28T12:32:42.473Z,6.10
2023-01-28T12:35:32.410Z,6.32
2023-01-28T12:38:03.114Z,6.43
2023-01-28T12:40:53.923Z,5.63
2023-01-28T12:43:42.657Z,6.55
2023-01-28T12:46:29.297Z,5.55
2023-01-28T12:49:05.637Z,5.32
2023-01-28T12:51:54.366Z,5.72
2023-01-28T12:54:28.959Z,5.03
2023-01-28T12:56:56.777Z,4.82
2023-01-28T12:59:38.263Z,5.75
2023-01-28T13:02:14.218Z,5.78
2023-01-28T13:04:52.935Z,5.65
2023-01-28T13:07:31.673Z,5.97
2023-01-28T13:10:37.668Z,5.10
2023-01-28T13:13:07.173Z,4.60
2023-01-28T13:15:44.445Z,4.85
2023-01-28T13:18:45.587Z,4.28
2023-01-28T13:21:24.368Z,4.40
2023-01-28T13:24:15.109Z,5.00
2023-01-28T13:26:55.060Z,4.22
2023-01-28T13:29:33.614Z,5.00
2023-01-28T13:32:03.241Z,5.32
2023-01-28T13:34:36.284Z,5.10
2023-01-28T13:37:39.872Z,5.57
2023-01-28T13:40:29.065Z,4.90
2023-01-28T13:43:02.203Z,5.88
2023-01-28T13:45:29.524Z,5.30
2023-01-28T13:48:29.359Z,4.90
2023-01-28T13:50:57.388Z,5.00
2023-01-28T13:53:29.684Z,5.05
2023-01-28T13:55:59.346Z,5.20
2023-01-28T13:58:49.915Z,5.28
2023-01-28T14:01:31.972Z,4.90
2023-01-28T14:04:02.783Z,5.32
2023-01-28T14:06:44.339Z,5.30
2023-01-28T14:09:20.303Z,4.85
2023-01-28T14:12:00.574Z,5.78
2023-01-28T14:14:48.653Z,6.10
2023-01-28T14:17:35.878Z,5.72
2023-01-28T14:20:04.955Z,5.75
2023-01-28T14:22:31.732Z,5.88
2023-01-28T14:25:01.892Z,6.28
2023-01-28T14:27:42.963Z,5.65
2023-01-28T14:30:25.744Z,5.80
2023-01-28T14:32:54.261Z,5.93
2023-01-28T14:35:31.192Z,6.47
2023-01-28T14:38:00.339Z,6.43
2023-01-28T14:40:30.163Z,6.32
2023-01-28T14:42:58.226Z,6.20
2023-01-28T14:46:16.288Z,6.30
2023-01-28T14:49:12.382Z,6.22
2023-01-28T14:52:10.023Z,5.68
2023-01-28T14:55:15.542Z,6.63
2023-01-28T14:57:50.899Z,5.95
2023-01-28T15:00:24.450Z,6.15
2023-01-28T15:02:51.307Z,5.78
2023-01-28T15:05:24.347Z,6.47
2023-01-28T15:07:52.160Z,6.13
2023-01-28T15:10:28.611Z,6.90
2023-01-28T15:13:08.598Z,6.28
2023-01-28T15:15:39.699Z,6.90
2023-01-28T15:18:22.611Z,6.78
2023-01-28T15:20:55.049Z,6.03
2023-01-28T15:23:39.594Z,6.45
2023-01-28T15:26:10.807Z,7.10
2023-01-28T15:28:39.627Z,6.53
2023-01-28T15:31:07.064Z,7.30
2023-01-28T15:33:33.853Z,7.53
2023-01-28T15:36:02.131Z,6.57
2023-01-28T15:38:29.435Z,6.63
2023-01-28T15:40:59.139Z,7.45
2023-01-28T15:43:38.845Z,6.65
2023-01-28T15:46:13.351Z,6.72
2023-01-28T15:48:45.643Z,7.95
2023-01-28T15:51:34.061Z,7.80
2023-01-28T15:54:10.504Z,6.78
2023-01-28T15:56:37.427Z,6.68
2023-01-28T15:59:16.424Z,6.57
2023-01-28T16:01:43.763Z,6.72
2023-01-28T16:04:27.959Z,6.88
2023-01-28T16:06:58.531Z,7.15
2023-01-28T16:09:30.209Z,6.32
2023-01-28T16:12:08.988Z,7.38
2023-01-28T16:14:57.165Z,6.93
2023-01-28T16:17:30.829Z,7.00
2023-01-28T16:20:11.026Z,6.82
2023-01-28T16:22:40.792Z,6.82
2023-01-28T16:25:30.340Z,6.18
2023-01-28T16:27:58.927Z,6.35
2023-01-28T16:30:26.459Z,7.38
2023-01-28T16:32:55.450Z,7.25
2023-01-28T16:35:38.235Z,8.15
2023-01-28T16:38:20.559Z,7.68
2023-01-28T16:40:47.882Z,8.77
2023-01-28T16:43:16.446Z,7.72
2023-01-28T16:45:43.834Z,7.00
2023-01-28T16:48:10.411Z,7.95
2023-01-28T16:50:40.208Z,7.68
2023-01-28T16:53:18.936Z,8.02
2023-01-28T16:55:45.924Z,8.20
2023-01-28T16:58:23.991Z,7.45
2023-01-28T17:00:53.931Z,7.78
2023-01-28T17:03:20.990Z,8.18
2023-01-28T17:05:47.769Z,8.10
2023-01-28T17:08:14.582Z,8.35
2023-01-28T17:10:41.475Z,7.25
2023-01-28T17:13:08.173Z,7.13
2023-01-28T17:15:36.197Z,7.07
2023-01-28T17:18:03.062Z,7.25
2023-01-28T17:20:30.306Z,7.15
2023-01-28T17:22:57.488Z,7.55
2023-01-28T17:25:24.270Z,7.38
2023-01-28T17:27:51.189Z,7.07
2023-01-28T17:30:20.753Z,7.43
2023-01-28T17:32:48.141Z,8.35
2023-01-28T17:35:15.740Z,7.90
2023-01-28T17:37:42.710Z,8.02
2023-01-28T17:40:12.419Z,8.60
2023-01-28T17:42:39.236Z,8.27
2023-01-28T17:45:06.331Z,8.35
2023-01-28T17:47:33.231Z,8.88
2023-01-28T17:50:00.365Z,9.02
2023-01-28T17:52:27.258Z,9.40
2023-01-28T17:54:54.026Z,9.30
2023-01-28T17:57:21.141Z,8.80
2023-01-28T17:59:48.101Z,9.23
2023-01-28T18:02:23.859Z,9.85
2023-01-28T18:04:50.812Z,9.05
2023-01-28T18:07:17.435Z,9.75
2023-01-28T18:09:46.092Z,10.73
2023-01-28T18:12:14.865Z,10.50
2023-01-28T18:14:41.763Z,10.02
2023-01-28T18:17:08.874Z,11.23
2023-01-28T18:19:35.842Z,13.07
2023-01-28T18:22:03.441Z,11.88
2023-01-28T18:24:30.747Z,10.98
2023-01-28T18:26:59.865Z,9.80
2023-01-28T18:29:32.533Z,9.68
2023-01-28T18:32:01.349Z,12.82
2023-01-28T18:34:31.586Z,11.85
2023-01-28T18:36:58.803Z,10.15
2023-01-28T18:39:32.712Z,9.50
2023-01-28T18:42:00.124Z,8.95
2023-01-28T18:44:30.014Z,9.00
2023-01-28T18:46:57.595Z,9.75
2023-01-28T18:49:26.446Z,9.88
2023-01-28T18:51:53.190Z,9.07
2023-01-28T18:54:20.938Z,10.07
2023-01-28T18:56:48.756Z,9.45
2023-01-28T18:59:15.699Z,10.57
2023-01-28T19:01:43.765Z,9.43
2023-01-28T19:04:10.953Z,10.63
2023-01-28T19:06:38.322Z,11.50
2023-01-28T19:09:09.198Z,10.75
2023-01-28T19:11:37.954Z,11.07
2023-01-28T19:14:04.559Z,11.68
2023-01-28T19:16:31.360Z,11.40
2023-01-28T19:19:00.615Z,11.52
2023-01-28T19:21:31.062Z,10.55
2023-01-28T19:24:04.566Z,11.45
2023-01-28T19:26:32.262Z,11.60
2023-01-28T19:28:59.525Z,11.02
2023-01-28T19:31:28.565Z,10.82
2023-01-28T19:33:58.308Z,11.77
2023-01-28T19:36:26.811Z,11.45
2023-01-28T19:38:57.999Z,11.45
2023-01-28T19:41:24.998Z,10.90
2023-01-28T19:43:51.713Z,11.25
2023-01-28T19:46:19.224Z,10.45
2023-01-28T19:48:52.650Z,10.27
2023-01-28T19:51:20.716Z,11.13
2023-01-28T19:53:50.120Z,10.90
2023-01-28T19:56:18.433Z,11.13
2023-01-28T19:58:48.409Z,11.30
2023-01-28T20:01:19.965Z,11.65
2023-01-28T20:03:50.406Z,10.50
2023-01-28T20:06:17.739Z,11.38
2023-01-28T20:08:46.395Z,11.20
2023-01-28T20:11:15.753Z,11.40
2023-01-28T20:13:44.551Z,11.35
2023-01-28T20:16:19.920Z,11.52
2023-01-28T20:18:58.841Z,10.98
2023-01-28T20:21:26.201Z,11.43
2023-01-28T20:23:54.868Z,12.07
2023-01-28T20:26:24.482Z,11.63
2023-01-28T20:28:51.948Z,11.63
2023-01-28T20:31:21.181Z,11.55
2023-01-28T20:33:48.000Z,11.30
2023-01-28T20:36:15.074Z,10.85
2023-01-28T20:38:44.426Z,11.77
2023-01-28T20:41:14.778Z,11.45
2023-01-28T20:43:43.885Z,12.65
2023-01-28T20:46:13.991Z,11.57
2023-01-28T20:48:41.328Z,11.52
2023-01-28T20:51:11.909Z,12.57
2023-01-28T20:53:40.543Z,12.63
2023-01-28T20:56:11.397Z,11.88
2023-01-28T20:58:38.461Z,12.35
2023-01-28T21:01:05.824Z,13.25
2023-01-28T21:03:33.344Z,12.93
2023-01-28T21:06:00.940Z,11.55
2023-01-28T21:08:27.578Z,12.18
2023-01-28T21:10:55.169Z,11.68
2023-01-28T21:13:21.993Z,12.13
2023-01-28T21:15:55.024Z,11.50
2023-01-28T21:18:22.597Z,10.40
2023-01-28T21:20:49.577Z,11.32
2023-01-28T21:23:16.622Z,11.98
2023-01-28T21:25:46.513Z,12.23
2023-01-28T21:28:14.094Z,11.90
2023-01-28T21:30:40.955Z,11.65
2023-01-28T21:33:08.303Z,11.65
2023-01-28T21:35:39.900Z,12.07
2023-01-28T21:38:07.508Z,11.88
2023-01-28T21:40:35.159Z,12.57
2023-01-28T21:43:02.194Z,11.65
2023-01-28T21:45:29.226Z,12.82
2023-01-28T21:47:55.897Z,12.30
2023-01-28T21:50:23.412Z,13.55
2023-01-28T21:52:51.840Z,16.38
2023-01-28T21:55:18.842Z,14.90
2023-01-28T21:57:45.528Z,16.23
2023-01-28T22:00:13.186Z,17.95
2023-01-28T22:02:40.419Z,17.50
2023-01-28T22:05:07.882Z,16.02
2023-01-28T22:07:34.569Z,16.95
2023-01-28T22:10:01.148Z,15.40
2023-01-28T22:12:28.128Z,14.45
2023-01-28T22:14:54.942Z,15.02
2023-01-28T22:17:21.864Z,14.88
2023-01-28T22:19:48.549Z,15.38
2023-01-28T22:22:16.139Z,15.60
2023-01-28T22:24:42.946Z,15.77
2023-01-28T22:27:09.604Z,15.27
2023-01-28T22:29:36.162Z,15.25
2023-01-28T22:32:04.942Z,15.02
2023-01-28T22:34:32.331Z,15.82
2023-01-28T22:36:59.200Z,15.98
2023-01-28T22:39:25.737Z,16.08
2023-01-28T22:41:52.374Z,15.77
2023-01-28T22:44:20.189Z,16.70
2023-01-28T22:46:48.249Z,15.10
2023-01-28T22:49:15.235Z,16.55
2023-01-28T22:51:42.679Z,15.68
2023-01-28T22:54:11.647Z,16.42
2023-01-28T22:56:38.570Z,15.73
2023-01-28T22:59:05.369Z,15.52
2023-01-28T23:01:32.742Z,15.68
2023-01-28T23:03:59.494Z,15.10
2023-01-28T23:06:27.187Z,15.50
2023-01-28T23:08:54.533Z,15.23
2023-01-28T23:11:28.166Z,15.55
2023-01-28T23:17:00.168Z,14.13
2023-01-28T23:19:45.751Z,15.13
2023-01-28T23:22:34.426Z,14.95
2023-01-28T23:25:01.127Z,15.60
2023-01-28T23:27:27.918Z,16.25
2023-01-28T23:29:54.691Z,15.80
2023-01-28T23:32:22.444Z,15.27
2023-01-28T23:34:49.215Z,15.40
2023-01-28T23:37:15.955Z,14.88
2023-01-28T23:39:43.254Z,16.67
2023-01-28T23:42:16.496Z,15.18
2023-01-28T23:44:43.190Z,15.88
2023-01-28T23:47:10.207Z,16.35
2023-01-28T23:49:38.026Z,15.50
2023-01-28T23:52:06.418Z,15.05
2023-01-28T23:54:33.710Z,15.15
2023-01-28T23:57:01.151Z,16.02
2023-01-28T23:59:27.928Z,15.90
